Time;durP1;ratioP1;P1;durP2;ratioP2;P2;SDS_P1;SDS_P2;PMS_P1;PMS_P2;Temp;Humidity;BMP_temperature;BMP_pressure;BME280_temperature;BME280_humidity;BME280_pressure;Samples;Min_cycle;Max_cycle;Signal;HPM_P1;HPM_P2
2022/09/19 00:01:43;;;;;;;16.87;3.57;;;9.00;99.90;;;;;;5031162;28;20217;-55
2022/09/19 00:04:13;;;;;;;18.10;3.23;;;9.00;99.90;;;;;;5031711;28;20257;-57
2022/09/19 00:06:41;;;;;;;15.10;2.87;;;9.00;99.90;;;;;;5034268;28;20233;-56
2022/09/19 00:09:10;;;;;;;8.60;2.87;;;9.10;99.90;;;;;;5034974;28;20209;-56
2022/09/19 00:11:41;;;;;;;26.17;4.07;;;9.10;99.90;;;;;;5035054;28;20213;-58
2022/09/19 00:14:08;;;;;;;18.27;3.67;;;9.10;99.90;;;;;;5035240;28;20264;-57
2022/09/19 00:16:38;;;;;;;14.17;2.73;;;9.10;99.90;;;;;;5034942;28;20236;-56
2022/09/19 00:19:07;;;;;;;12.43;3.10;;;9.10;99.90;;;;;;5034781;28;20695;-57
2022/09/19 00:21:35;;;;;;;13.70;3.03;;;9.10;99.90;;;;;;5035008;28;20619;-59
2022/09/19 00:26:49;;;;;;;19.93;3.63;;;9.00;99.90;;;;;;5035102;28;20232;-59
2022/09/19 00:29:18;;;;;;;21.30;3.50;;;9.00;99.90;;;;;;5034854;28;20212;-58
2022/09/19 00:31:45;;;;;;;14.47;3.77;;;9.00;99.90;;;;;;5034869;28;20259;-57
2022/09/19 00:34:13;;;;;;;13.33;3.37;;;9.00;99.90;;;;;;5034447;28;20279;-58
2022/09/19 00:36:42;;;;;;;14.07;3.43;;;9.00;99.90;;;;;;5034330;28;20237;-58
2022/09/19 00:39:10;;;;;;;17.10;3.57;;;9.10;99.90;;;;;;5034390;28;20229;-58
2022/09/19 00:41:37;;;;;;;17.10;3.23;;;9.10;99.90;;;;;;5034446;28;20672;-56
2022/09/19 00:44:26;;;;;;;19.97;3.13;;;9.10;99.90;;;;;;5034575;28;20292;-54
2022/09/19 00:46:59;;;;;;;17.00;2.90;;;9.10;99.90;;;;;;5033999;28;20226;-58
2022/09/19 00:49:28;;;;;;;9.60;2.90;;;9.10;99.90;;;;;;5034376;28;20601;-56
2022/09/19 00:51:59;;;;;;;21.23;3.00;;;9.10;99.90;;;;;;5034384;28;20244;-58
2022/09/19 00:54:29;;;;;;;14.23;3.13;;;9.10;99.90;;;;;;5034192;28;20229;-53
2022/09/19 00:56:57;;;;;;;18.70;3.00;;;9.10;99.90;;;;;;5033959;28;20783;-57
2022/09/19 00:59:29;;;;;;;13.30;2.40;;;9.00;99.90;;;;;;5033823;28;20209;-58
2022/09/19 01:01:57;;;;;;;14.70;3.27;;;9.10;99.90;;;;;;5034413;28;20217;-56
2022/09/19 01:04:35;;;;;;;19.47;2.80;;;9.10;99.90;;;;;;5034089;28;20267;-57
2022/09/19 01:07:14;;;;;;;16.60;2.57;;;9.10;99.90;;;;;;5033764;28;20311;-57
2022/09/19 01:09:47;;;;;;;13.83;3.13;;;9.10;99.90;;;;;;5033857;28;20666;-57
2022/09/19 01:12:37;;;;;;;12.50;2.63;;;9.20;99.90;;;;;;5034088;28;20636;-57
2022/09/19 01:15:32;;;;;;;8.47;2.50;;;9.10;99.90;;;;;;5033859;28;20226;-57
2022/09/19 01:18:01;;;;;;;24.50;2.70;;;9.20;99.90;;;;;;5032959;28;20241;-57
2022/09/19 01:20:52;;;;;;;6.53;2.50;;;9.20;99.90;;;;;;5033645;28;20328;-57
2022/09/19 01:23:35;;;;;;;12.63;2.70;;;9.20;99.90;;;;;;5033815;28;20206;-59
2022/09/19 01:26:16;;;;;;;25.23;3.53;;;9.20;99.90;;;;;;5033294;28;20220;-57
2022/09/19 01:28:48;;;;;;;13.67;2.97;;;9.20;99.90;;;;;;5033736;28;20213;-57
2022/09/19 01:31:21;;;;;;;14.60;2.60;;;9.20;99.90;;;;;;5033661;28;20218;-58
2022/09/19 01:33:52;;;;;;;12.40;3.13;;;9.20;99.90;;;;;;5033308;28;20298;-59
2022/09/19 01:36:22;;;;;;;13.70;3.10;;;9.30;99.90;;;;;;5033164;28;20226;-58
2022/09/19 01:38:51;;;;;;;17.33;2.70;;;9.20;99.90;;;;;;5033192;28;20669;-59
2022/09/19 01:41:21;;;;;;;11.47;2.80;;;9.20;99.90;;;;;;5033146;28;20680;-59
2022/09/19 01:43:49;;;;;;;16.00;3.53;;;9.20;99.90;;;;;;5033326;28;20210;-59
2022/09/19 01:46:24;;;;;;;16.40;3.20;;;9.20;99.90;;;;;;5033125;28;20651;-58
2022/09/19 01:49:06;;;;;;;10.83;2.60;;;9.30;99.90;;;;;;5033037;28;20679;-55
2022/09/19 01:51:37;;;;;;;17.87;3.23;;;9.30;99.90;;;;;;5032946;28;20206;-58
2022/09/19 01:54:16;;;;;;;9.30;2.23;;;9.30;99.90;;;;;;5033140;28;20214;-57
2022/09/19 01:56:53;;;;;;;9.03;2.30;;;9.30;99.90;;;;;;5032908;28;20280;-56
2022/09/19 01:59:46;;;;;;;17.33;2.93;;;9.40;99.90;;;;;;5032902;28;20208;-56
2022/09/19 02:02:21;;;;;;;18.20;2.77;;;9.30;99.90;;;;;;5031447;28;20707;-57
2022/09/19 02:04:51;;;;;;;15.40;2.53;;;9.30;99.90;;;;;;5032933;28;20217;-57
2022/09/19 02:07:27;;;;;;;13.13;2.33;;;9.20;99.90;;;;;;5032461;28;20716;-55
2022/09/19 02:10:00;;;;;;;15.93;2.83;;;9.20;99.90;;;;;;5032627;28;20209;-56
2022/09/19 02:12:28;;;;;;;8.07;2.10;;;9.10;99.90;;;;;;5032489;28;20731;-56
2022/09/19 02:14:59;;;;;;;12.80;2.60;;;9.10;99.90;;;;;;5032575;28;20226;-56
2022/09/19 02:17:32;;;;;;;19.63;2.83;;;9.00;99.90;;;;;;5032433;28;20229;-55
2022/09/19 02:20:04;;;;;;;12.63;2.20;;;9.00;99.90;;;;;;5032447;28;20308;-53
2022/09/19 02:22:34;;;;;;;9.97;2.23;;;8.90;99.90;;;;;;5032634;28;20232;-55
2022/09/19 02:25:05;;;;;;;17.87;2.57;;;8.90;99.90;;;;;;5032185;28;20200;-55
2022/09/19 02:27:38;;;;;;;14.53;2.43;;;8.90;99.90;;;;;;5034075;28;20320;-58
2022/09/19 02:30:09;;;;;;;10.57;2.30;;;8.90;99.90;;;;;;5034308;28;20210;-58
2022/09/19 02:32:36;;;;;;;12.57;2.50;;;8.90;99.90;;;;;;5033939;28;20208;-58
2022/09/19 02:35:05;;;;;;;9.40;2.57;;;8.90;99.90;;;;;;5032224;28;20377;-59
2022/09/19 02:37:37;;;;;;;11.80;2.53;;;8.90;99.90;;;;;;5031990;28;20240;-56
2022/09/19 02:40:09;;;;;;;18.83;2.70;;;8.90;99.90;;;;;;5032213;28;20213;-59
2022/09/19 02:42:44;;;;;;;17.27;2.80;;;8.80;99.90;;;;;;5032322;28;20264;-55
2022/09/19 02:45:17;;;;;;;18.80;3.07;;;8.80;99.90;;;;;;5032237;28;20201;-60
2022/09/19 02:47:51;;;;;;;7.90;2.30;;;8.80;99.90;;;;;;5031792;28;20692;-58
2022/09/19 02:50:24;;;;;;;15.50;3.30;;;8.80;99.90;;;;;;5032295;28;20209;-58
2022/09/19 02:52:54;;;;;;;15.60;2.57;;;8.80;99.90;;;;;;5032200;28;20259;-58
2022/09/19 02:55:25;;;;;;;11.87;2.50;;;8.80;99.90;;;;;;5031852;28;20238;-58
2022/09/19 02:57:55;;;;;;;10.37;2.27;;;8.80;99.90;;;;;;5031861;28;20647;-58
2022/09/19 03:00:23;;;;;;;8.80;2.27;;;8.70;99.90;;;;;;5031856;28;20263;-56
2022/09/19 03:02:56;;;;;;;18.17;3.00;;;8.70;99.90;;;;;;5031913;28;20727;-58
2022/09/19 03:05:27;;;;;;;11.73;2.67;;;8.70;99.90;;;;;;5031970;28;20244;-59
2022/09/19 03:07:59;;;;;;;16.53;2.73;;;8.70;99.90;;;;;;5031678;28;20250;-59
2022/09/19 03:10:31;;;;;;;11.70;3.10;;;8.60;99.90;;;;;;5031955;28;20275;-59
2022/09/19 03:13:01;;;;;;;16.43;3.13;;;8.60;99.90;;;;;;5031790;28;20234;-58
2022/09/19 03:15:36;;;;;;;19.37;3.83;;;8.70;99.90;;;;;;5031679;28;20239;-59
2022/09/19 03:18:06;;;;;;;12.53;2.50;;;8.70;99.90;;;;;;5031812;28;20215;-58
2022/09/19 03:20:36;;;;;;;17.97;3.43;;;8.60;99.90;;;;;;5031925;28;20266;-59
2022/09/19 03:23:03;;;;;;;16.20;3.00;;;8.60;99.90;;;;;;5031780;28;20217;-58
2022/09/19 03:25:30;;;;;;;12.80;2.63;;;8.70;99.90;;;;;;5031453;28;20212;-60
2022/09/19 03:27:57;;;;;;;18.27;2.93;;;8.70;99.90;;;;;;5031696;28;20206;-56
2022/09/19 03:30:24;;;;;;;13.23;2.60;;;8.80;99.90;;;;;;5031715;28;20237;-54
2022/09/19 03:32:53;;;;;;;13.57;2.77;;;8.80;99.90;;;;;;5031799;28;20206;-56
2022/09/19 03:35:22;;;;;;;14.57;2.90;;;8.80;99.90;;;;;;5031495;28;20226;-57
2022/09/19 03:37:50;;;;;;;16.47;2.57;;;8.90;99.90;;;;;;5031156;28;20260;-55
2022/09/19 03:40:18;;;;;;;11.63;2.70;;;8.90;99.90;;;;;;5032807;28;20217;-55
2022/09/19 03:42:46;;;;;;;13.80;2.53;;;8.90;99.90;;;;;;5036175;28;20232;-60
2022/09/19 03:45:12;;;;;;;16.07;2.93;;;8.90;99.90;;;;;;5035759;28;20787;-60
2022/09/19 03:47:39;;;;;;;11.63;2.63;;;8.90;99.90;;;;;;5035655;28;20209;-58
2022/09/19 03:50:08;;;;;;;13.27;3.00;;;8.90;99.90;;;;;;5035294;28;20209;-58
2022/09/19 03:52:35;;;;;;;16.50;2.97;;;8.90;99.90;;;;;;5035153;28;20249;-58
2022/09/19 03:55:02;;;;;;;10.77;2.10;;;8.90;99.90;;;;;;5035292;28;20275;-56
2022/09/19 03:57:28;;;;;;;19.33;2.70;;;8.90;99.90;;;;;;5035102;28;20227;-58
2022/09/19 03:59:55;;;;;;;18.87;2.50;;;8.90;99.90;;;;;;5035272;28;20244;-59
2022/09/19 04:02:22;;;;;;;16.83;2.80;;;8.90;99.90;;;;;;5035440;28;20627;-59
2022/09/19 04:04:48;;;;;;;14.57;3.17;;;8.90;99.90;;;;;;5035268;28;20259;-57
2022/09/19 04:07:16;;;;;;;11.30;2.90;;;8.90;99.90;;;;;;5035400;28;20226;-59
2022/09/19 04:09:43;;;;;;;15.70;2.60;;;8.80;99.90;;;;;;5035255;28;20278;-59
2022/09/19 04:12:10;;;;;;;11.17;2.80;;;8.80;99.90;;;;;;5035485;28;20665;-55
2022/09/19 04:14:36;;;;;;;18.17;3.43;;;8.80;99.90;;;;;;5034892;28;20213;-56
2022/09/19 04:17:03;;;;;;;23.70;2.90;;;8.80;99.90;;;;;;5034544;28;20237;-56
2022/09/19 04:19:30;;;;;;;10.40;2.63;;;8.80;99.90;;;;;;5034621;28;20213;-54
2022/09/19 04:22:01;;;;;;;17.17;3.53;;;8.80;99.90;;;;;;5034925;28;20214;-57
2022/09/19 04:24:29;;;;;;;8.70;2.17;;;8.80;99.90;;;;;;5034813;28;20204;-56
2022/09/19 04:26:59;;;;;;;14.63;3.00;;;8.80;99.90;;;;;;5034541;28;20232;-56
2022/09/19 04:29:27;;;;;;;10.60;2.83;;;8.90;99.90;;;;;;5034758;28;20213;-61
2022/09/19 04:31:54;;;;;;;10.70;2.80;;;8.90;99.90;;;;;;5034490;28;20301;-57
2022/09/19 04:34:21;;;;;;;17.30;2.97;;;8.90;99.90;;;;;;5035075;28;20209;-55
2022/09/19 04:36:50;;;;;;;10.33;2.63;;;8.90;99.90;;;;;;5034064;28;20773;-57
2022/09/19 04:39:17;;;;;;;14.27;2.93;;;9.00;99.90;;;;;;5034555;28;20255;-53
2022/09/19 04:41:45;;;;;;;12.27;2.20;;;9.00;99.90;;;;;;5034480;28;20635;-57
2022/09/19 04:44:12;;;;;;;13.83;2.97;;;9.10;99.90;;;;;;5034346;28;20218;-58
2022/09/19 04:46:41;;;;;;;16.33;3.50;;;9.10;99.90;;;;;;5026373;28;20889;-60
2022/09/19 04:49:08;;;;;;;13.00;2.63;;;9.10;99.90;;;;;;5043360;28;20209;-53
2022/09/19 04:51:35;;;;;;;10.57;2.20;;;9.10;99.90;;;;;;5053172;28;20209;-58
2022/09/19 04:54:01;;;;;;;17.93;3.20;;;9.10;99.90;;;;;;5053791;28;20236;-58
2022/09/19 04:56:28;;;;;;;10.90;2.77;;;9.20;99.90;;;;;;5052231;28;20232;-59
2022/09/19 04:58:58;;;;;;;13.00;3.13;;;9.20;99.90;;;;;;5049367;28;20208;-59
2022/09/19 05:01:25;;;;;;;19.43;3.00;;;9.20;99.90;;;;;;5035958;28;20209;-58
2022/09/19 05:03:52;;;;;;;18.03;3.10;;;9.20;99.90;;;;;;5034044;28;20434;-54
2022/09/19 05:06:19;;;;;;;9.20;2.47;;;9.20;99.90;;;;;;5033377;28;20230;-58
2022/09/19 05:08:45;;;;;;;21.73;2.57;;;9.20;99.90;;;;;;5033901;28;20214;-59
2022/09/19 05:11:12;;;;;;;7.87;2.60;;;9.30;99.90;;;;;;5033731;28;20272;-59
2022/09/19 05:13:40;;;;;;;15.67;3.20;;;9.30;99.90;;;;;;5033333;28;20721;-58
2022/09/19 05:16:09;;;;;;;20.30;2.67;;;9.40;99.90;;;;;;5036288;28;20228;-61
2022/09/19 05:18:37;;;;;;;13.17;2.77;;;9.40;99.90;;;;;;5033286;28;20213;-62
2022/09/19 05:21:06;;;;;;;12.53;3.10;;;9.40;99.90;;;;;;5033185;28;20222;-56
2022/09/19 05:23:33;;;;;;;17.50;3.17;;;9.40;99.90;;;;;;5033098;28;20256;-62
2022/09/19 05:26:04;;;;;;;18.87;3.10;;;9.40;99.90;;;;;;5033124;28;20277;-59
2022/09/19 05:28:31;;;;;;;12.07;2.73;;;9.40;99.90;;;;;;5033184;28;20790;-58
2022/09/19 05:30:58;;;;;;;9.57;2.87;;;9.50;99.90;;;;;;5033476;28;20309;-58
2022/09/19 05:33:26;;;;;;;12.23;2.63;;;9.50;99.90;;;;;;5033035;28;20213;-58
2022/09/19 05:35:54;;;;;;;21.03;3.17;;;9.50;99.90;;;;;;5032601;28;20244;-60
2022/09/19 05:38:20;;;;;;;17.20;3.13;;;9.50;99.90;;;;;;5032714;28;20268;-61
2022/09/19 05:40:47;;;;;;;12.50;2.93;;;9.50;99.90;;;;;;5032799;28;20293;-61
2022/09/19 05:43:14;;;;;;;10.07;2.63;;;9.50;99.90;;;;;;5033128;28;20210;-55
2022/09/19 05:45:41;;;;;;;20.47;3.00;;;9.50;99.90;;;;;;5032790;28;20709;-58
2022/09/19 05:48:08;;;;;;;13.90;2.30;;;9.50;99.90;;;;;;5032795;28;20268;-62
2022/09/19 05:50:37;;;;;;;13.30;3.07;;;9.50;99.90;;;;;;5032450;28;20256;-59
2022/09/19 05:55:48;;;;;;;15.93;3.50;;;9.50;99.90;;;;;;5032498;28;20236;-58
2022/09/19 05:58:17;;;;;;;16.03;4.07;;;9.50;99.90;;;;;;5032784;28;20206;-57
2022/09/19 06:00:44;;;;;;;43.30;6.33;;;9.40;99.90;;;;;;5032300;28;20210;-59
2022/09/19 06:03:16;;;;;;;30.80;5.83;;;9.40;99.90;;;;;;5030464;28;20206;-58
2022/09/19 06:05:47;;;;;;;20.17;4.17;;;9.40;99.90;;;;;;5042909;28;20249;-59
2022/09/19 06:08:14;;;;;;;16.73;3.70;;;9.50;99.90;;;;;;5051175;28;20296;-60
2022/09/19 06:10:42;;;;;;;12.97;4.57;;;9.50;99.90;;;;;;5051957;28;20559;-60
2022/09/19 06:13:12;;;;;;;19.47;3.57;;;9.50;99.90;;;;;;5051932;28;20842;-52
2022/09/19 06:15:38;;;;;;;17.97;3.50;;;9.50;99.90;;;;;;5051184;28;20225;-61
2022/09/19 06:18:06;;;;;;;14.20;3.70;;;9.50;99.90;;;;;;5051243;28;20283;-61
2022/09/19 06:20:33;;;;;;;15.07;4.13;;;9.60;99.90;;;;;;5051621;28;20240;-52
2022/09/19 06:23:02;;;;;;;21.13;4.10;;;9.60;99.90;;;;;;5051454;28;20209;-55
2022/09/19 06:25:29;;;;;;;14.27;3.40;;;9.60;99.90;;;;;;5051764;28;20210;-64
2022/09/19 06:27:56;;;;;;;19.27;4.57;;;9.70;99.90;;;;;;5050843;28;20683;-63
2022/09/19 06:30:24;;;;;;;23.00;4.20;;;9.60;99.90;;;;;;5051606;28;20206;-62
2022/09/19 06:32:51;;;;;;;14.93;4.23;;;9.70;99.90;;;;;;5051056;28;20275;-65
2022/09/19 06:35:18;;;;;;;19.57;4.27;;;9.70;99.90;;;;;;5051615;28;20209;-65
2022/09/19 06:37:45;;;;;;;14.43;4.43;;;9.80;99.90;;;;;;5053871;28;20241;-64
2022/09/19 06:40:13;;;;;;;17.00;4.50;;;9.80;99.90;;;;;;5056510;28;20209;-65
2022/09/19 06:42:40;;;;;;;15.83;5.03;;;9.90;99.90;;;;;;5055452;28;20206;-65
2022/09/19 06:45:08;;;;;;;20.90;5.17;;;9.90;99.90;;;;;;5050017;28;20612;-64
2022/09/19 06:47:35;;;;;;;17.83;4.90;;;10.00;99.90;;;;;;5050720;28;20225;-56
2022/09/19 06:50:02;;;;;;;18.27;4.47;;;10.00;99.90;;;;;;5050855;28;20251;-50
2022/09/19 06:52:29;;;;;;;19.50;5.27;;;10.00;99.90;;;;;;5051333;28;20267;-53
2022/09/19 06:54:57;;;;;;;15.63;4.20;;;10.00;99.90;;;;;;5050819;28;20210;-56
2022/09/19 06:57:27;;;;;;;11.73;4.70;;;10.00;99.90;;;;;;5050732;28;20324;-58
2022/09/19 06:59:54;;;;;;;26.33;6.27;;;10.00;99.90;;;;;;5050535;28;20270;-59
2022/09/19 07:02:20;;;;;;;30.20;5.73;;;10.20;99.90;;;;;;5051610;28;20207;-60
2022/09/19 07:04:47;;;;;;;18.37;4.73;;;10.30;99.90;;;;;;5051692;28;20205;-64
2022/09/19 07:07:15;;;;;;;16.47;4.60;;;10.30;99.90;;;;;;5042326;28;20269;-60
2022/09/19 07:09:41;;;;;;;17.60;4.80;;;10.30;99.90;;;;;;5051108;28;20206;-66
2022/09/19 07:12:09;;;;;;;21.20;4.43;;;10.30;99.90;;;;;;5037635;28;20553;-66
2022/09/19 07:14:38;;;;;;;12.90;3.70;;;10.40;99.90;;;;;;5031357;28;20218;-61
2022/09/19 07:17:04;;;;;;;15.93;4.53;;;10.50;99.90;;;;;;5034499;28;20240;-61
2022/09/19 07:19:31;;;;;;;9.43;4.10;;;10.60;99.90;;;;;;5035217;28;20210;-61
2022/09/19 07:21:58;;;;;;;17.90;4.03;;;10.70;99.90;;;;;;5034711;28;20206;-61
2022/09/19 07:24:25;;;;;;;14.63;3.60;;;10.80;99.90;;;;;;5035351;28;20206;-60
2022/09/19 07:26:51;;;;;;;15.03;3.53;;;10.90;99.90;;;;;;5034587;28;20228;-59
2022/09/19 07:29:18;;;;;;;15.07;4.57;;;11.00;99.90;;;;;;5034872;28;20202;-59
2022/09/19 07:31:46;;;;;;;12.50;3.40;;;11.10;99.90;;;;;;5034760;28;20252;-60
2022/09/19 07:34:13;;;;;;;14.73;3.07;;;11.10;99.90;;;;;;5034746;28;20214;-58
2022/09/19 07:36:39;;;;;;;12.43;3.20;;;11.20;99.90;;;;;;5034819;28;20288;-64
2022/09/19 07:39:06;;;;;;;13.57;3.13;;;11.30;99.90;;;;;;5034274;28;20217;-63
2022/09/19 07:41:33;;;;;;;14.70;3.43;;;11.50;99.90;;;;;;5034937;28;20256;-63
2022/09/19 07:44:00;;;;;;;9.03;2.43;;;11.60;99.90;;;;;;5033453;28;20219;-64
2022/09/19 07:46:27;;;;;;;15.37;3.33;;;11.60;99.90;;;;;;5034758;28;20222;-55
2022/09/19 07:48:54;;;;;;;13.40;2.30;;;11.70;99.90;;;;;;5034475;28;20207;-54
2022/09/19 07:51:21;;;;;;;20.67;3.73;;;11.80;99.90;;;;;;5034324;28;20214;-55
2022/09/19 07:53:49;;;;;;;13.03;2.23;;;11.90;99.90;;;;;;5034472;28;20272;-57
2022/09/19 07:56:16;;;;;;;5.63;1.57;;;12.00;99.90;;;;;;5033735;28;20292;-57
2022/09/19 07:58:43;;;;;;;11.50;2.40;;;12.00;99.90;;;;;;5034407;28;20206;-56
2022/09/19 08:01:09;;;;;;;8.20;1.73;;;12.00;99.90;;;;;;5034294;28;20673;-56
2022/09/19 08:03:36;;;;;;;11.00;2.90;;;11.90;99.90;;;;;;5034592;28;20222;-54
2022/09/19 08:06:05;;;;;;;10.03;2.40;;;12.00;99.90;;;;;;5033822;28;20234;-54
2022/09/19 08:08:31;;;;;;;7.23;2.30;;;12.10;99.90;;;;;;5034196;28;20210;-61
2022/09/19 08:11:01;;;;;;;4.67;1.63;;;12.10;99.90;;;;;;5034554;28;20283;-64
2022/09/19 08:13:29;;;;;;;15.47;2.27;;;12.20;99.90;;;;;;5034183;28;20289;-60
2022/09/19 08:15:55;;;;;;;5.90;1.63;;;12.10;99.90;;;;;;5033806;28;20226;-63
2022/09/19 08:18:23;;;;;;;11.27;2.50;;;12.10;99.90;;;;;;5033936;28;20242;-61
2022/09/19 08:20:50;;;;;;;10.17;2.67;;;12.10;99.90;;;;;;5034138;28;20226;-62
2022/09/19 08:23:20;;;;;;;15.83;2.60;;;12.10;99.90;;;;;;5033847;28;20206;-61
2022/09/19 08:25:51;;;;;;;8.20;1.53;;;12.20;99.90;;;;;;5033582;28;20227;-62
2022/09/19 08:28:19;;;;;;;10.33;2.20;;;12.30;99.90;;;;;;5033607;28;20206;-62
2022/09/19 08:30:47;;;;;;;8.13;1.87;;;12.40;99.90;;;;;;5034133;28;20211;-63
2022/09/19 08:33:15;;;;;;;9.20;2.67;;;12.50;99.90;;;;;;5034024;28;20209;-63
2022/09/19 08:35:43;;;;;;;4.77;1.77;;;12.60;99.90;;;;;;5033494;28;20230;-57
2022/09/19 08:38:12;;;;;;;5.83;1.33;;;12.70;99.90;;;;;;5033240;28;20230;-55
2022/09/19 08:40:54;;;;;;;7.50;2.10;;;12.80;99.90;;;;;;5033316;28;20626;-57
2022/09/19 08:43:27;;;;;;;5.97;1.70;;;13.00;91.80;;;;;;5034118;28;20256;-63
2022/09/19 08:46:11;;;;;;;12.33;1.73;;;13.00;62.30;;;;;;5032849;28;20640;-60
2022/09/19 08:48:46;;;;;;;10.97;1.70;;;13.10;79.70;;;;;;5033799;28;20206;-60
2022/09/19 08:51:19;;;;;;;11.93;1.83;;;13.20;80.10;;;;;;5033553;28;20214;-62
2022/09/19 08:53:52;;;;;;;9.03;1.50;;;13.30;62.50;;;;;;5033522;28;20206;-59
2022/09/19 08:56:21;;;;;;;8.40;1.20;;;13.40;57.60;;;;;;5032749;28;20367;-57
2022/09/19 08:58:54;;;;;;;13.53;2.30;;;13.40;29.60;;;;;;5050968;28;20350;-58
2022/09/19 09:01:22;;;;;;;6.43;1.50;;;13.40;17.50;;;;;;5053587;28;20244;-61
2022/09/19 09:04:00;;;;;;;8.63;1.70;;;13.40;17.80;;;;;;5053209;28;20208;-61
2022/09/19 09:06:35;;;;;;;5.40;1.60;;;13.40;27.70;;;;;;5052803;28;20792;-63
2022/09/19 09:09:09;;;;;;;9.07;1.73;;;13.50;38.40;;;;;;5052858;28;20229;-64
2022/09/19 09:11:45;;;;;;;7.47;1.50;;;13.70;28.00;;;;;;5053206;28;20209;-63
2022/09/19 09:14:22;;;;;;;8.93;1.97;;;13.90;6.70;;;;;;5052941;28;20208;-62
2022/09/19 09:17:00;;;;;;;6.03;1.40;;;14.00;1.00;;;;;;5052488;28;20759;-63
2022/09/19 09:20:09;;;;;;;7.57;1.23;;;14.00;1.00;;;;;;5052521;28;20643;-65
2022/09/19 09:22:40;;;;;;;13.83;1.37;;;14.30;1.00;;;;;;5047584;28;20197;-64
2022/09/19 09:25:12;;;;;;;6.17;2.03;;;14.40;1.00;;;;;;5051640;28;20672;-65
2022/09/19 09:27:47;;;;;;;3.90;1.03;;;14.40;1.00;;;;;;5040887;28;20696;-67
2022/09/19 09:30:18;;;;;;;3.43;1.00;;;14.50;1.00;;;;;;5052374;28;20212;-66
2022/09/19 09:32:48;;;;;;;8.63;1.07;;;14.60;1.00;;;;;;5052657;28;20318;-65
2022/09/19 09:35:31;;;;;;;7.63;0.90;;;14.40;1.00;;;;;;5052240;28;20206;-66
2022/09/19 09:38:03;;;;;;;8.77;1.27;;;14.50;1.00;;;;;;5051125;28;20232;-58
2022/09/19 09:43:36;;;;;;;5.77;1.30;;;14.60;1.00;;;;;;5052485;28;20679;-56
2022/09/19 09:46:08;;;;;;;3.57;1.27;;;14.70;1.00;;;;;;5051732;28;20231;-58
2022/09/19 09:48:38;;;;;;;7.30;1.30;;;14.50;1.00;;;;;;5051959;28;20202;-56
2022/09/19 09:51:18;;;;;;;9.17;1.43;;;14.50;1.00;;;;;;5052236;28;20259;-59
2022/09/19 09:56:14;;;;;;;7.47;1.40;;;14.50;1.00;;;;;;5051539;28;20241;-63
2022/09/19 09:57:00;;;;;;;5.17;1.57;;;14.60;1.00;;;;;;5051076;28;20233;-62
2022/09/19 10:05:16;;;;;;;6.33;1.20;;;14.40;1.00;;;;;;5051560;28;20229;-63
2022/09/19 10:07:58;;;;;;;7.77;1.93;;;14.50;1.00;;;;;;5051703;28;20201;-62
2022/09/19 10:10:27;;;;;;;3.83;1.00;;;14.70;1.00;;;;;;5051612;28;20209;-63
2022/09/19 10:12:58;;;;;;;6.73;1.50;;;14.70;1.00;;;;;;5051761;28;20221;-60
2022/09/19 10:15:27;;;;;;;7.87;1.23;;;14.60;1.00;;;;;;5051410;28;20205;-62
2022/09/19 10:18:04;;;;;;;9.43;1.70;;;14.50;1.00;;;;;;5051255;28;20695;-61
2022/09/19 10:20:37;;;;;;;9.30;1.67;;;14.40;1.00;;;;;;5051509;28;20217;-61
2022/09/19 10:23:04;;;;;;;8.00;1.50;;;14.20;1.00;;;;;;5052023;28;20221;-61
2022/09/19 10:25:31;;;;;;;8.13;1.30;;;14.20;1.00;;;;;;5051957;28;20623;-61
2022/09/19 10:28:15;;;;;;;4.97;1.33;;;14.10;1.00;;;;;;5050998;28;20202;-61
2022/09/19 10:30:54;;;;;;;7.23;1.23;;;14.10;1.00;;;;;;5051527;28;20213;-63
2022/09/19 10:33:28;;;;;;;4.43;1.30;;;14.60;1.00;;;;;;5051297;28;20680;-64
2022/09/19 10:35:58;;;;;;;3.80;0.90;;;14.70;1.00;;;;;;5051361;28;20243;-64
2022/09/19 10:38:26;;;;;;;7.07;1.50;;;14.90;1.00;;;;;;5050959;28;20225;-64
2022/09/19 10:40:56;;;;;;;6.37;1.30;;;14.90;1.00;;;;;;5051706;28;20576;-64
2022/09/19 10:43:30;;;;;;;8.00;1.57;;;15.00;99.90;;;;;;5051009;28;20209;-63
2022/09/19 10:46:06;;;;;;;5.57;0.80;;;15.10;99.90;;;;;;5051051;28;20241;-64
2022/09/19 10:48:34;;;;;;;5.73;0.93;;;15.20;99.90;;;;;;5050670;28;20197;-63
2022/09/19 10:51:08;;;;;;;8.10;1.30;;;15.30;49.40;;;;;;5051253;28;20213;-63
2022/09/19 10:53:36;;;;;;;4.03;0.90;;;15.40;99.90;;;;;;5051241;28;20267;-64
2022/09/19 10:56:05;;;;;;;7.87;1.20;;;15.70;99.90;;;;;;5051077;28;20221;-67
2022/09/19 10:58:39;;;;;;;4.97;1.10;;;15.70;32.20;;;;;;5051021;28;20266;-68
2022/09/19 11:01:20;;;;;;;12.50;1.63;;;15.60;99.90;;;;;;5051023;28;20209;-67
2022/09/19 11:03:59;;;;;;;6.50;1.23;;;15.60;1.00;;;;;;5051233;28;20209;-68
2022/09/19 11:06:25;;;;;;;4.90;1.03;;;15.80;99.90;;;;;;5050496;28;20315;-67
2022/09/19 11:08:54;;;;;;;6.50;1.03;;;15.80;99.90;;;;;;5050835;28;20236;-65
2022/09/19 11:11:36;;;;;;;5.90;1.03;;;15.70;99.90;;;;;;5050949;28;20232;-68
2022/09/19 11:14:09;;;;;;;9.93;1.23;;;15.70;1.00;;;;;;5051240;28;20672;-66
2022/09/19 11:16:45;;;;;;;5.33;0.70;;;15.60;99.90;;;;;;5050259;28;20229;-65
2022/09/19 11:19:27;;;;;;;2.23;0.90;;;15.60;1.00;;;;;;5051119;28;20605;-65
2022/09/19 11:22:07;;;;;;;3.83;0.70;;;15.50;1.00;;;;;;5050646;28;20209;-67
2022/09/19 11:24:54;;;;;;;6.03;0.80;;;15.40;7.50;;;;;;5050870;28;20672;-66
2022/09/19 11:27:40;;;;;;;7.30;1.37;;;15.50;1.00;;;;;;5050332;28;20228;-66
2022/09/19 11:30:14;;;;;;;6.53;1.10;;;15.60;1.00;;;;;;5030999;28;20695;-67
2022/09/19 11:33:04;;;;;;;5.30;0.90;;;15.90;1.00;;;;;;5030504;28;20704;-68
2022/09/19 11:35:36;;;;;;;5.03;1.23;;;15.90;1.00;;;;;;5035752;28;20205;-66
2022/09/19 11:38:27;;;;;;;7.47;1.20;;;16.10;1.00;;;;;;5049903;28;20275;-66
2022/09/19 11:41:05;;;;;;;4.30;1.20;;;16.30;1.00;;;;;;5050767;28;20205;-66
2022/09/19 11:43:45;;;;;;;5.50;0.93;;;16.70;1.00;;;;;;5050558;28;20241;-66
2022/09/19 11:46:26;;;;;;;6.10;1.00;;;16.80;1.00;;;;;;5050533;28;20962;-66
2022/09/19 11:49:18;;;;;;;7.40;1.00;;;16.80;99.90;;;;;;5050302;28;20209;-66
2022/09/19 11:51:56;;;;;;;5.33;1.20;;;16.70;99.90;;;;;;5051610;28;20287;-62
2022/09/19 11:54:52;;;;;;;3.60;0.73;;;16.50;99.90;;;;;;5051421;28;20300;-66
2022/09/19 11:57:39;;;;;;;5.10;0.80;;;16.30;99.90;;;;;;5051434;28;20229;-66
2022/09/19 12:00:16;;;;;;;4.27;1.00;;;16.20;99.90;;;;;;5051654;28;20255;-66
2022/09/19 12:02:59;;;;;;;5.57;1.03;;;16.00;99.90;;;;;;5055343;28;20250;-66
2022/09/19 12:05:39;;;;;;;6.80;1.00;;;15.80;99.90;;;;;;5054767;28;20201;-65
2022/09/19 12:08:18;;;;;;;3.87;1.03;;;15.60;99.90;;;;;;5054463;28;20201;-65
2022/09/19 12:10:49;;;;;;;3.97;0.77;;;15.10;1.00;;;;;;5054088;28;20256;-62
2022/09/19 12:13:21;;;;;;;2.83;0.60;;;14.70;1.00;;;;;;5054230;28;20210;-63
2022/09/19 12:15:52;;;;;;;2.60;0.67;;;14.40;99.90;;;;;;5054189;28;20229;-60
2022/09/19 12:18:24;;;;;;;3.60;0.93;;;14.30;1.00;;;;;;5053411;28;20225;-63
2022/09/19 12:20:56;;;;;;;2.40;0.67;;;14.40;1.00;;;;;;5053946;28;20213;-63
2022/09/19 12:26:18;;;;;;;5.20;0.90;;;14.80;1.00;;;;;;5053927;28;20240;-63
2022/09/19 12:28:52;;;;;;;1.77;0.50;;;14.90;1.00;;;;;;5053177;28;20205;-63
2022/09/19 12:31:22;;;;;;;3.07;0.53;;;14.90;99.90;;;;;;5054187;28;20197;-64
2022/09/19 12:33:53;;;;;;;3.60;1.30;;;15.00;99.90;;;;;;5053848;28;20280;-61
2022/09/19 12:36:29;;;;;;;3.20;0.70;;;15.20;99.90;;;;;;5053642;28;20781;-57
2022/09/19 12:39:02;;;;;;;1.07;0.40;;;15.30;99.90;;;;;;5052872;28;20283;-54
2022/09/19 12:41:40;;;;;;;1.63;0.50;;;15.30;99.90;;;;;;5053730;28;20233;-57
2022/09/19 12:44:16;;;;;;;2.57;0.50;;;15.20;1.00;;;;;;5053510;28;20264;-54
2022/09/19 12:46:54;;;;;;;1.40;0.63;;;15.30;1.00;;;;;;5053505;28;20225;-59
2022/09/19 12:49:28;;;;;;;3.43;0.50;;;15.40;1.00;;;;;;5052670;28;20217;-61
2022/09/19 12:52:04;;;;;;;5.03;0.70;;;15.60;99.90;;;;;;5053507;28;20742;-66
2022/09/19 12:54:36;;;;;;;3.20;0.60;;;15.80;1.00;;;;;;5053332;28;20664;-67
2022/09/19 12:57:07;;;;;;;1.43;0.43;;;15.90;1.00;;;;;;5052812;28;20236;-63
2022/09/19 12:59:35;;;;;;;1.40;0.50;;;16.00;99.90;;;;;;5053301;28;20229;-63
2022/09/19 13:02:11;;;;;;;4.13;0.73;;;16.00;99.90;;;;;;5053715;28;20209;-62
2022/09/19 13:04:44;;;;;;;6.60;0.70;;;16.10;99.90;;;;;;5053765;28;20204;-63
2022/09/19 13:07:21;;;;;;;2.17;0.80;;;16.10;99.90;;;;;;5052475;28;20248;-63
2022/09/19 13:09:58;;;;;;;3.53;0.80;;;16.00;99.90;;;;;;5053082;28;20205;-62
2022/09/19 13:12:36;;;;;;;2.10;0.90;;;16.10;99.90;;;;;;5051715;28;20209;-62
2022/09/19 13:15:13;;;;;;;3.70;1.10;;;16.10;99.90;;;;;;5053100;28;20266;-63
2022/09/19 13:23:35;;;;;;;3.23;1.10;;;16.30;99.90;;;;;;5053432;28;20282;-64
2022/09/19 13:26:35;;;;;;;6.57;1.00;;;15.90;99.90;;;;;;5052745;28;20782;-61
2022/09/19 13:29:03;;;;;;;3.67;1.10;;;15.30;1.00;;;;;;5045143;28;20202;-67
2022/09/19 13:31:56;;;;;;;4.40;1.30;;;15.10;1.00;;;;;;5045146;28;20734;-63
2022/09/19 13:34:39;;;;;;;3.57;1.20;;;14.90;15.60;;;;;;5052600;28;20213;-65